sensor_id;sensor_type;location;lat;lon;timestamp;temperature;humidity
16980;DHT22;42288;52.182;21.156;2022-11-15T00:01:46;8.70;99.90
16980;DHT22;42288;52.182;21.156;2022-11-15T00:04:11;8.60;99.90
16980;DHT22;42288;52.182;21.156;2022-11-15T00:06:37;8.30;99.90
16980;DHT22;42288;52.182;21.156;2022-11-15T00:09:03;8.30;99.90
16980;DHT22;42288;52.182;21.156;2022-11-15T00:11:31;8.40;99.90
16980;DHT22;42288;52.182;21.156;2022-11-15T00:13:57;8.50;99.90
16980;DHT22;42288;52.182;21.156;2022-11-15T00:16:24;8.50;99.90
16980;DHT22;42288;52.182;21.156;2022-11-15T00:18:49;8.30;99.90
16980;DHT22;42288;52.182;21.156;2022-11-15T00:21:15;8.00;99.90
16980;DHT22;42288;52.182;21.156;2022-11-15T00:23:41;8.20;99.90
16980;DHT22;42288;52.182;21.156;2022-11-15T00:26:11;8.10;99.90
16980;DHT22;42288;52.182;21.156;2022-11-15T00:28:37;8.10;99.90
16980;DHT22;42288;52.182;21.156;2022-11-15T00:31:05;8.00;99.90
16980;DHT22;42288;52.182;21.156;2022-11-15T00:33:31;7.90;99.90
16980;DHT22;42288;52.182;21.156;2022-11-15T00:36:07;7.90;99.90
16980;DHT22;42288;52.182;21.156;2022-11-15T00:38:36;8.00;99.90
16980;DHT22;42288;52.182;21.156;2022-11-15T00:41:03;8.20;99.90
16980;DHT22;42288;52.182;21.156;2022-11-15T00:43:29;8.30;99.90
16980;DHT22;42288;52.182;21.156;2022-11-15T00:45:55;8.50;99.90
16980;DHT22;42288;52.182;21.156;2022-11-15T00:48:20;8.40;99.90
16980;DHT22;42288;52.182;21.156;2022-11-15T00:50:46;8.00;99.90
16980;DHT22;42288;52.182;21.156;2022-11-15T00:53:12;7.90;99.90
16980;DHT22;42288;52.182;21.156;2022-11-15T00:55:37;8.00;99.90
16980;DHT22;42288;52.182;21.156;2022-11-15T00:58:03;8.10;99.90
16980;DHT22;42288;52.182;21.156;2022-11-15T01:00:28;7.90;99.90
16980;DHT22;42288;52.182;21.156;2022-11-15T01:02:54;7.90;99.90
16980;DHT22;42288;52.182;21.156;2022-11-15T01:05:19;8.00;99.90
16980;DHT22;42288;52.182;21.156;2022-11-15T01:07:45;7.90;99.90
16980;DHT22;42288;52.182;21.156;2022-11-15T01:10:10;7.90;99.90
16980;DHT22;42288;52.182;21.156;2022-11-15T01:12:36;7.80;99.90
16980;DHT22;42288;52.182;21.156;2022-11-15T01:15:02;7.80;99.90
16980;DHT22;42288;52.182;21.156;2022-11-15T01:17:28;7.70;99.90
16980;DHT22;42288;52.182;21.156;2022-11-15T01:19:55;7.70;99.90
16980;DHT22;42288;52.182;21.156;2022-11-15T01:22:20;7.90;99.90
16980;DHT22;42288;52.182;21.156;2022-11-15T01:24:46;7.90;99.90
16980;DHT22;42288;52.182;21.156;2022-11-15T01:27:11;8.00;99.90
16980;DHT22;42288;52.182;21.156;2022-11-15T01:29:37;7.80;99.90
16980;DHT22;42288;52.182;21.156;2022-11-15T01:32:02;7.80;99.90
16980;DHT22;42288;52.182;21.156;2022-11-15T01:34:28;8.00;99.90
16980;DHT22;42288;52.182;21.156;2022-11-15T01:36:53;8.10;99.90
16980;DHT22;42288;52.182;21.156;2022-11-15T01:39:19;8.30;99.90
16980;DHT22;42288;52.182;21.156;2022-11-15T01:41:44;8.10;99.90
16980;DHT22;42288;52.182;21.156;2022-11-15T01:44:49;7.90;99.90
16980;DHT22;42288;52.182;21.156;2022-11-15T01:47:53;7.80;99.90
16980;DHT22;42288;52.182;21.156;2022-11-15T01:50:25;7.90;99.90
16980;DHT22;42288;52.182;21.156;2022-11-15T01:52:53;8.00;99.90
16980;DHT22;42288;52.182;21.156;2022-11-15T01:55:21;8.20;99.90
16980;DHT22;42288;52.182;21.156;2022-11-15T01:57:50;8.40;99.90
16980;DHT22;42288;52.182;21.156;2022-11-15T02:00:17;8.40;99.90
16980;DHT22;42288;52.182;21.156;2022-11-15T02:02:42;8.30;99.90
16980;DHT22;42288;52.182;21.156;2022-11-15T02:05:08;8.30;99.90
16980;DHT22;42288;52.182;21.156;2022-11-15T02:07:35;8.50;99.90
16980;DHT22;42288;52.182;21.156;2022-11-15T02:10:06;8.40;99.90
16980;DHT22;42288;52.182;21.156;2022-11-15T02:12:33;8.30;99.90
16980;DHT22;42288;52.182;21.156;2022-11-15T02:14:59;8.40;99.90
16980;DHT22;42288;52.182;21.156;2022-11-15T02:17:53;8.40;99.90
16980;DHT22;42288;52.182;21.156;2022-11-15T02:20:50;8.40;99.90
16980;DHT22;42288;52.182;21.156;2022-11-15T02:23:54;8.40;99.90
16980;DHT22;42288;52.182;21.156;2022-11-15T02:26:41;8.50;99.90
16980;DHT22;42288;52.182;21.156;2022-11-15T02:29:38;8.50;99.90
16980;DHT22;42288;52.182;21.156;2022-11-15T02:35:23;8.40;99.90
16980;DHT22;42288;52.182;21.156;2022-11-15T02:38:05;8.30;99.90
16980;DHT22;42288;52.182;21.156;2022-11-15T02:40:48;8.30;99.90
16980;DHT22;42288;52.182;21.156;2022-11-15T02:46:48;8.50;99.90
16980;DHT22;42288;52.182;21.156;2022-11-15T02:49:37;8.40;99.90
16980;DHT22;42288;52.182;21.156;2022-11-15T02:52:04;8.30;99.90
16980;DHT22;42288;52.182;21.156;2022-11-15T02:54:32;8.30;99.90
16980;DHT22;42288;52.182;21.156;2022-11-15T02:57:05;8.10;99.90
16980;DHT22;42288;52.182;21.156;2022-11-15T03:08:10;8.30;99.90
16980;DHT22;42288;52.182;21.156;2022-11-15T03:10:52;8.30;99.90
16980;DHT22;42288;52.182;21.156;2022-11-15T03:13:39;7.80;99.90
16980;DHT22;42288;52.182;21.156;2022-11-15T03:16:15;7.90;99.90
16980;DHT22;42288;52.182;21.156;2022-11-15T03:18:47;7.90;99.90
16980;DHT22;42288;52.182;21.156;2022-11-15T03:21:16;7.90;99.90
16980;DHT22;42288;52.182;21.156;2022-11-15T03:23:44;7.90;99.90
16980;DHT22;42288;52.182;21.156;2022-11-15T03:26:14;7.60;99.90
16980;DHT22;42288;52.182;21.156;2022-11-15T03:28:46;7.80;99.90
16980;DHT22;42288;52.182;21.156;2022-11-15T03:31:13;7.90;99.90
16980;DHT22;42288;52.182;21.156;2022-11-15T03:34:00;8.00;99.90
16980;DHT22;42288;52.182;21.156;2022-11-15T03:36:28;8.00;99.90
16980;DHT22;42288;52.182;21.156;2022-11-15T03:38:59;8.00;99.90
16980;DHT22;42288;52.182;21.156;2022-11-15T03:41:31;7.90;99.90
16980;DHT22;42288;52.182;21.156;2022-11-15T03:44:12;8.00;99.90
16980;DHT22;42288;52.182;21.156;2022-11-15T03:47:01;7.90;99.90
16980;DHT22;42288;52.182;21.156;2022-11-15T03:49:32;7.90;99.90
16980;DHT22;42288;52.182;21.156;2022-11-15T03:52:00;7.70;99.90
16980;DHT22;42288;52.182;21.156;2022-11-15T03:54:27;7.40;99.90
16980;DHT22;42288;52.182;21.156;2022-11-15T03:56:52;7.40;99.90
16980;DHT22;42288;52.182;21.156;2022-11-15T03:59:18;7.50;99.90
16980;DHT22;42288;52.182;21.156;2022-11-15T04:01:43;7.50;99.90
16980;DHT22;42288;52.182;21.156;2022-11-15T04:04:09;7.70;99.90
16980;DHT22;42288;52.182;21.156;2022-11-15T04:06:34;7.90;99.90
16980;DHT22;42288;52.182;21.156;2022-11-15T04:09:00;7.90;99.90
16980;DHT22;42288;52.182;21.156;2022-11-15T04:11:25;7.70;99.90
16980;DHT22;42288;52.182;21.156;2022-11-15T04:13:51;7.70;99.90
16980;DHT22;42288;52.182;21.156;2022-11-15T04:16:16;7.70;99.90
16980;DHT22;42288;52.182;21.156;2022-11-15T04:18:42;7.80;99.90
16980;DHT22;42288;52.182;21.156;2022-11-15T04:21:08;8.10;99.90
16980;DHT22;42288;52.182;21.156;2022-11-15T04:23:52;8.20;99.90
16980;DHT22;42288;52.182;21.156;2022-11-15T04:26:29;8.30;99.90
16980;DHT22;42288;52.182;21.156;2022-11-15T04:28:55;8.30;99.90
16980;DHT22;42288;52.182;21.156;2022-11-15T04:31:39;8.20;99.90
16980;DHT22;42288;52.182;21.156;2022-11-15T04:34:04;8.10;99.90
16980;DHT22;42288;52.182;21.156;2022-11-15T04:36:30;8.20;99.90
16980;DHT22;42288;52.182;21.156;2022-11-15T04:39:14;7.70;99.90
16980;DHT22;42288;52.182;21.156;2022-11-15T04:41:39;7.30;99.90
16980;DHT22;42288;52.182;21.156;2022-11-15T04:44:05;7.50;99.90
16980;DHT22;42288;52.182;21.156;2022-11-15T04:46:30;7.60;99.90
16980;DHT22;42288;52.182;21.156;2022-11-15T04:48:56;7.60;99.90
16980;DHT22;42288;52.182;21.156;2022-11-15T04:51:21;7.60;99.90
16980;DHT22;42288;52.182;21.156;2022-11-15T04:53:47;7.70;99.90
16980;DHT22;42288;52.182;21.156;2022-11-15T04:56:12;7.90;99.90
16980;DHT22;42288;52.182;21.156;2022-11-15T04:58:38;7.90;99.90
16980;DHT22;42288;52.182;21.156;2022-11-15T05:01:11;7.60;99.90
16980;DHT22;42288;52.182;21.156;2022-11-15T05:03:37;7.70;99.90
16980;DHT22;42288;52.182;21.156;2022-11-15T05:06:21;7.70;99.90
16980;DHT22;42288;52.182;21.156;2022-11-15T05:08:47;7.70;99.90
16980;DHT22;42288;52.182;21.156;2022-11-15T05:11:12;7.70;99.90
16980;DHT22;42288;52.182;21.156;2022-11-15T05:13:38;7.80;99.90
16980;DHT22;42288;52.182;21.156;2022-11-15T05:16:03;8.10;99.90
16980;DHT22;42288;52.182;21.156;2022-11-15T05:18:29;8.10;99.90
16980;DHT22;42288;52.182;21.156;2022-11-15T05:20:54;7.90;99.90
16980;DHT22;42288;52.182;21.156;2022-11-15T05:23:20;7.80;99.90
16980;DHT22;42288;52.182;21.156;2022-11-15T05:25:45;7.90;99.90
16980;DHT22;42288;52.182;21.156;2022-11-15T05:28:12;7.90;99.90
16980;DHT22;42288;52.182;21.156;2022-11-15T05:30:38;7.70;99.90
16980;DHT22;42288;52.182;21.156;2022-11-15T05:33:03;8.10;99.90
16980;DHT22;42288;52.182;21.156;2022-11-15T05:35:46;8.00;99.90
16980;DHT22;42288;52.182;21.156;2022-11-15T05:38:15;8.00;99.90
16980;DHT22;42288;52.182;21.156;2022-11-15T05:40:40;7.90;99.90
16980;DHT22;42288;52.182;21.156;2022-11-15T05:43:06;8.00;99.90
16980;DHT22;42288;52.182;21.156;2022-11-15T05:45:32;8.30;99.90
16980;DHT22;42288;52.182;21.156;2022-11-15T05:48:00;8.20;99.90
16980;DHT22;42288;52.182;21.156;2022-11-15T05:50:29;8.20;99.90
16980;DHT22;42288;52.182;21.156;2022-11-15T05:52:55;7.90;99.90
16980;DHT22;42288;52.182;21.156;2022-11-15T05:55:21;7.50;99.90
16980;DHT22;42288;52.182;21.156;2022-11-15T05:57:47;7.70;99.90
16980;DHT22;42288;52.182;21.156;2022-11-15T06:00:13;7.90;99.90
16980;DHT22;42288;52.182;21.156;2022-11-15T06:02:38;8.20;99.90
16980;DHT22;42288;52.182;21.156;2022-11-15T06:05:04;8.10;99.90
16980;DHT22;42288;52.182;21.156;2022-11-15T06:07:30;8.10;99.90
16980;DHT22;42288;52.182;21.156;2022-11-15T06:09:55;8.10;99.90
16980;DHT22;42288;52.182;21.156;2022-11-15T06:12:20;8.20;99.90
16980;DHT22;42288;52.182;21.156;2022-11-15T06:14:46;8.00;99.90
16980;DHT22;42288;52.182;21.156;2022-11-15T06:17:11;8.10;99.90
16980;DHT22;42288;52.182;21.156;2022-11-15T06:19:37;8.00;99.90
16980;DHT22;42288;52.182;21.156;2022-11-15T06:22:02;8.00;99.90
16980;DHT22;42288;52.182;21.156;2022-11-15T06:24:28;8.20;99.90
16980;DHT22;42288;52.182;21.156;2022-11-15T06:26:53;8.30;99.90
16980;DHT22;42288;52.182;21.156;2022-11-15T06:29:19;8.20;99.90
16980;DHT22;42288;52.182;21.156;2022-11-15T06:31:45;8.30;99.90
16980;DHT22;42288;52.182;21.156;2022-11-15T06:34:10;8.30;99.90
16980;DHT22;42288;52.182;21.156;2022-11-15T06:36:36;8.20;99.90
16980;DHT22;42288;52.182;21.156;2022-11-15T06:39:03;8.20;99.90
16980;DHT22;42288;52.182;21.156;2022-11-15T06:41:29;8.20;99.90
16980;DHT22;42288;52.182;21.156;2022-11-15T06:43:54;8.10;99.90
16980;DHT22;42288;52.182;21.156;2022-11-15T06:46:20;8.20;99.90
16980;DHT22;42288;52.182;21.156;2022-11-15T06:48:45;8.40;99.90
16980;DHT22;42288;52.182;21.156;2022-11-15T06:51:11;8.30;99.90
16980;DHT22;42288;52.182;21.156;2022-11-15T06:53:36;8.30;99.90
16980;DHT22;42288;52.182;21.156;2022-11-15T06:56:04;8.10;99.90
16980;DHT22;42288;52.182;21.156;2022-11-15T06:58:30;8.20;99.90
16980;DHT22;42288;52.182;21.156;2022-11-15T07:01:00;8.10;99.90
16980;DHT22;42288;52.182;21.156;2022-11-15T07:03:26;8.10;99.90
16980;DHT22;42288;52.182;21.156;2022-11-15T07:05:56;8.50;99.90
16980;DHT22;42288;52.182;21.156;2022-11-15T07:08:22;8.60;99.90
16980;DHT22;42288;52.182;21.156;2022-11-15T07:10:49;8.40;99.90
16980;DHT22;42288;52.182;21.156;2022-11-15T07:13:15;8.50;99.90
16980;DHT22;42288;52.182;21.156;2022-11-15T07:15:40;8.10;99.90
16980;DHT22;42288;52.182;21.156;2022-11-15T07:18:06;8.20;99.90
16980;DHT22;42288;52.182;21.156;2022-11-15T07:20:31;8.20;99.90
16980;DHT22;42288;52.182;21.156;2022-11-15T07:23:01;8.20;99.90
16980;DHT22;42288;52.182;21.156;2022-11-15T07:25:27;8.30;99.90
16980;DHT22;42288;52.182;21.156;2022-11-15T07:27:57;8.40;99.90
16980;DHT22;42288;52.182;21.156;2022-11-15T07:30:23;8.40;99.90
16980;DHT22;42288;52.182;21.156;2022-11-15T07:32:56;8.30;99.90
16980;DHT22;42288;52.182;21.156;2022-11-15T07:35:22;8.40;99.90
16980;DHT22;42288;52.182;21.156;2022-11-15T07:37:55;8.40;99.90
16980;DHT22;42288;52.182;21.156;2022-11-15T07:40:20;8.30;99.90
16980;DHT22;42288;52.182;21.156;2022-11-15T07:42:46;8.40;99.90
16980;DHT22;42288;52.182;21.156;2022-11-15T07:45:17;8.20;99.90
16980;DHT22;42288;52.182;21.156;2022-11-15T07:47:47;8.40;99.90
16980;DHT22;42288;52.182;21.156;2022-11-15T07:50:13;8.30;99.90
16980;DHT22;42288;52.182;21.156;2022-11-15T07:52:38;8.50;99.90
16980;DHT22;42288;52.182;21.156;2022-11-15T07:55:04;8.60;99.90
16980;DHT22;42288;52.182;21.156;2022-11-15T07:57:30;8.80;99.90
16980;DHT22;42288;52.182;21.156;2022-11-15T07:59:55;8.80;99.90
16980;DHT22;42288;52.182;21.156;2022-11-15T08:02:21;8.80;99.90
16980;DHT22;42288;52.182;21.156;2022-11-15T08:04:46;8.80;99.90
16980;DHT22;42288;52.182;21.156;2022-11-15T08:07:12;8.80;99.90
16980;DHT22;42288;52.182;21.156;2022-11-15T08:09:37;9.00;99.90
16980;DHT22;42288;52.182;21.156;2022-11-15T08:12:03;8.90;99.90
16980;DHT22;42288;52.182;21.156;2022-11-15T08:14:29;9.00;99.90
16980;DHT22;42288;52.182;21.156;2022-11-15T08:16:55;9.00;99.90
16980;DHT22;42288;52.182;21.156;2022-11-15T08:19:20;9.10;99.90
16980;DHT22;42288;52.182;21.156;2022-11-15T08:21:46;8.90;99.90
16980;DHT22;42288;52.182;21.156;2022-11-15T08:24:11;9.00;99.90
16980;DHT22;42288;52.182;21.156;2022-11-15T08:26:37;8.90;99.90
16980;DHT22;42288;52.182;21.156;2022-11-15T08:29:03;8.80;99.90
16980;DHT22;42288;52.182;21.156;2022-11-15T08:31:28;8.90;99.90
16980;DHT22;42288;52.182;21.156;2022-11-15T08:33:54;8.70;99.90
16980;DHT22;42288;52.182;21.156;2022-11-15T08:36:19;8.70;99.90
16980;DHT22;42288;52.182;21.156;2022-11-15T08:38:45;8.80;99.90
16980;DHT22;42288;52.182;21.156;2022-11-15T08:41:23;8.80;99.90
16980;DHT22;42288;52.182;21.156;2022-11-15T08:43:49;8.80;99.90
16980;DHT22;42288;52.182;21.156;2022-11-15T08:46:15;8.80;99.90
16980;DHT22;42288;52.182;21.156;2022-11-15T08:48:40;8.90;99.90
16980;DHT22;42288;52.182;21.156;2022-11-15T08:51:06;9.10;99.90
16980;DHT22;42288;52.182;21.156;2022-11-15T08:53:32;9.10;99.90
16980;DHT22;42288;52.182;21.156;2022-11-15T08:55:57;9.30;99.90
16980;DHT22;42288;52.182;21.156;2022-11-15T08:58:23;9.30;99.90
16980;DHT22;42288;52.182;21.156;2022-11-15T09:00:48;9.20;99.90
16980;DHT22;42288;52.182;21.156;2022-11-15T09:03:14;9.20;99.90
16980;DHT22;42288;52.182;21.156;2022-11-15T09:05:39;9.40;99.90
16980;DHT22;42288;52.182;21.156;2022-11-15T09:08:05;9.40;99.90
16980;DHT22;42288;52.182;21.156;2022-11-15T09:10:30;9.50;99.50
16980;DHT22;42288;52.182;21.156;2022-11-15T09:12:59;9.30;99.80
16980;DHT22;42288;52.182;21.156;2022-11-15T09:15:25;9.10;99.90
16980;DHT22;42288;52.182;21.156;2022-11-15T09:17:50;9.30;99.90
16980;DHT22;42288;52.182;21.156;2022-11-15T09:20:16;9.30;99.90
16980;DHT22;42288;52.182;21.156;2022-11-15T09:22:41;9.00;99.90
16980;DHT22;42288;52.182;21.156;2022-11-15T09:25:07;9.00;99.90
16980;DHT22;42288;52.182;21.156;2022-11-15T09:27:33;9.00;99.90
16980;DHT22;42288;52.182;21.156;2022-11-15T09:29:58;9.00;99.90
16980;DHT22;42288;52.182;21.156;2022-11-15T09:32:28;8.90;99.90
16980;DHT22;42288;52.182;21.156;2022-11-15T09:34:55;8.90;99.90
16980;DHT22;42288;52.182;21.156;2022-11-15T09:37:21;9.00;99.90
16980;DHT22;42288;52.182;21.156;2022-11-15T09:39:47;8.90;99.90
16980;DHT22;42288;52.182;21.156;2022-11-15T09:42:20;9.10;99.90
16980;DHT22;42288;52.182;21.156;2022-11-15T09:45:04;9.40;99.90
16980;DHT22;42288;52.182;21.156;2022-11-15T09:50:12;9.70;99.60
16980;DHT22;42288;52.182;21.156;2022-11-15T09:52:43;9.70;99.60
16980;DHT22;42288;52.182;21.156;2022-11-15T09:55:14;9.80;99.70
16980;DHT22;42288;52.182;21.156;2022-11-15T10:00:44;9.60;99.60
16980;DHT22;42288;52.182;21.156;2022-11-15T10:03:28;9.00;99.90
16980;DHT22;42288;52.182;21.156;2022-11-15T10:05:57;8.90;99.90
16980;DHT22;42288;52.182;21.156;2022-11-15T10:11:02;9.10;99.90
16980;DHT22;42288;52.182;21.156;2022-11-15T10:13:32;9.20;99.90
16980;DHT22;42288;52.182;21.156;2022-11-15T10:24:13;9.70;99.50
16980;DHT22;42288;52.182;21.156;2022-11-15T10:26:47;9.70;99.50
16980;DHT22;42288;52.182;21.156;2022-11-15T10:29:18;9.60;99.60
16980;DHT22;42288;52.182;21.156;2022-11-15T10:31:44;9.50;99.90
16980;DHT22;42288;52.182;21.156;2022-11-15T10:34:18;9.70;99.40
16980;DHT22;42288;52.182;21.156;2022-11-15T10:36:58;9.40;99.40
16980;DHT22;42288;52.182;21.156;2022-11-15T10:39:24;9.50;99.90
16980;DHT22;42288;52.182;21.156;2022-11-15T10:41:51;9.40;99.90
16980;DHT22;42288;52.182;21.156;2022-11-15T10:46:43;9.80;99.90
16980;DHT22;42288;52.182;21.156;2022-11-15T10:49:19;9.90;99.10
16980;DHT22;42288;52.182;21.156;2022-11-15T10:51:59;10.10;98.20
16980;DHT22;42288;52.182;21.156;2022-11-15T10:54:35;9.90;98.90
16980;DHT22;42288;52.182;21.156;2022-11-15T10:57:15;9.80;99.60
16980;DHT22;42288;52.182;21.156;2022-11-15T10:59:45;9.80;99.70
16980;DHT22;42288;52.182;21.156;2022-11-15T11:04:57;10.00;99.10
16980;DHT22;42288;52.182;21.156;2022-11-15T11:07:28;10.00;98.60
16980;DHT22;42288;52.182;21.156;2022-11-15T11:10:05;10.20;98.40
16980;DHT22;42288;52.182;21.156;2022-11-15T11:12:39;10.20;98.20
16980;DHT22;42288;52.182;21.156;2022-11-15T11:15:13;10.00;98.40
16980;DHT22;42288;52.182;21.156;2022-11-15T11:23:11;9.70;99.90
16980;DHT22;42288;52.182;21.156;2022-11-15T11:28:38;10.20;98.20
16980;DHT22;42288;52.182;21.156;2022-11-15T11:31:24;10.20;97.90
16980;DHT22;42288;52.182;21.156;2022-11-15T11:34:15;10.20;98.20
16980;DHT22;42288;52.182;21.156;2022-11-15T11:40:01;10.30;97.60
16980;DHT22;42288;52.182;21.156;2022-11-15T11:45:06;10.00;98.00
16980;DHT22;42288;52.182;21.156;2022-11-15T11:50:26;9.70;99.90
16980;DHT22;42288;52.182;21.156;2022-11-15T11:53:12;9.50;99.90
16980;DHT22;42288;52.182;21.156;2022-11-15T11:55:47;9.90;99.70
16980;DHT22;42288;52.182;21.156;2022-11-15T11:58:24;9.80;99.60
16980;DHT22;42288;52.182;21.156;2022-11-15T12:00:53;9.90;99.60
16980;DHT22;42288;52.182;21.156;2022-11-15T12:03:39;10.10;99.00
16980;DHT22;42288;52.182;21.156;2022-11-15T12:06:22;10.30;98.80
16980;DHT22;42288;52.182;21.156;2022-11-15T12:11:35;10.10;99.00
16980;DHT22;42288;52.182;21.156;2022-11-15T12:14:07;10.00;98.50
16980;DHT22;42288;52.182;21.156;2022-11-15T12:16:34;10.20;99.10
16980;DHT22;42288;52.182;21.156;2022-11-15T12:19:03;10.00;98.40
16980;DHT22;42288;52.182;21.156;2022-11-15T12:21:37;9.90;99.30
16980;DHT22;42288;52.182;21.156;2022-11-15T12:24:12;10.00;98.70
16980;DHT22;42288;52.182;21.156;2022-11-15T12:26:48;10.20;99.10
16980;DHT22;42288;52.182;21.156;2022-11-15T12:29:30;10.30;98.60
16980;DHT22;42288;52.182;21.156;2022-11-15T12:31:57;10.40;98.20
16980;DHT22;42288;52.182;21.156;2022-11-15T12:36:53;10.60;98.00
16980;DHT22;42288;52.182;21.156;2022-11-15T12:39:19;10.50;97.70
16980;DHT22;42288;52.182;21.156;2022-11-15T12:47:15;10.20;98.60
16980;DHT22;42288;52.182;21.156;2022-11-15T12:49:48;10.30;98.50
16980;DHT22;42288;52.182;21.156;2022-11-15T12:52:14;10.30;98.70
16980;DHT22;42288;52.182;21.156;2022-11-15T13:00:00;10.60;98.60
16980;DHT22;42288;52.182;21.156;2022-11-15T13:02:29;10.50;98.30
16980;DHT22;42288;52.182;21.156;2022-11-15T13:13:01;10.40;98.10
16980;DHT22;42288;52.182;21.156;2022-11-15T13:15:56;10.30;98.60
16980;DHT22;42288;52.182;21.156;2022-11-15T13:18:28;10.50;98.70
16980;DHT22;42288;52.182;21.156;2022-11-15T13:20:54;10.50;98.40
16980;DHT22;42288;52.182;21.156;2022-11-15T13:23:21;10.50;98.40
16980;DHT22;42288;52.182;21.156;2022-11-15T13:25:56;10.60;98.40
16980;DHT22;42288;52.182;21.156;2022-11-15T13:33:45;10.80;98.10
16980;DHT22;42288;52.182;21.156;2022-11-15T13:36:18;10.70;97.90
16980;DHT22;42288;52.182;21.156;2022-11-15T13:38:45;10.50;98.20
16980;DHT22;42288;52.182;21.156;2022-11-15T13:41:47;10.60;98.40
16980;DHT22;42288;52.182;21.156;2022-11-15T13:44:28;10.70;98.20
16980;DHT22;42288;52.182;21.156;2022-11-15T13:47:13;10.60;98.00
16980;DHT22;42288;52.182;21.156;2022-11-15T13:49:40;10.20;98.20
16980;DHT22;42288;52.182;21.156;2022-11-15T13:52:08;10.20;99.00
16980;DHT22;42288;52.182;21.156;2022-11-15T13:54:58;10.30;98.90
16980;DHT22;42288;52.182;21.156;2022-11-15T13:57:42;10.30;98.50
16980;DHT22;42288;52.182;21.156;2022-11-15T14:02:47;10.50;98.90
16980;DHT22;42288;52.182;21.156;2022-11-15T14:05:22;10.40;98.70
16980;DHT22;42288;52.182;21.156;2022-11-15T14:10:47;10.30;98.40
16980;DHT22;42288;52.182;21.156;2022-11-15T14:13:30;10.40;98.80
16980;DHT22;42288;52.182;21.156;2022-11-15T14:16:19;10.50;98.50
16980;DHT22;42288;52.182;21.156;2022-11-15T14:18:48;10.50;98.50
16980;DHT22;42288;52.182;21.156;2022-11-15T14:21:14;10.60;98.40
16980;DHT22;42288;52.182;21.156;2022-11-15T14:23:40;10.30;98.00
16980;DHT22;42288;52.182;21.156;2022-11-15T14:26:10;10.20;98.70
16980;DHT22;42288;52.182;21.156;2022-11-15T14:28:36;10.40;98.90
16980;DHT22;42288;52.182;21.156;2022-11-15T14:31:11;10.20;98.20
16980;DHT22;42288;52.182;21.156;2022-11-15T14:33:38;9.80;99.10
16980;DHT22;42288;52.182;21.156;2022-11-15T14:38:31;10.00;99.20
16980;DHT22;42288;52.182;21.156;2022-11-15T14:40:57;9.90;99.60
16980;DHT22;42288;52.182;21.156;2022-11-15T14:43:23;9.90;99.80
16980;DHT22;42288;52.182;21.156;2022-11-15T14:45:49;9.90;99.70
16980;DHT22;42288;52.182;21.156;2022-11-15T14:48:14;10.10;99.30
16980;DHT22;42288;52.182;21.156;2022-11-15T14:50:40;10.20;98.90
16980;DHT22;42288;52.182;21.156;2022-11-15T14:53:06;10.20;98.80
16980;DHT22;42288;52.182;21.156;2022-11-15T14:55:35;10.10;98.90
16980;DHT22;42288;52.182;21.156;2022-11-15T14:58:05;10.10;98.90
16980;DHT22;42288;52.182;21.156;2022-11-15T15:00:34;10.00;99.00
16980;DHT22;42288;52.182;21.156;2022-11-15T15:03:00;10.10;99.20
16980;DHT22;42288;52.182;21.156;2022-11-15T15:05:31;10.20;99.10
16980;DHT22;42288;52.182;21.156;2022-11-15T15:07:58;9.90;99.40
16980;DHT22;42288;52.182;21.156;2022-11-15T15:10:24;9.80;99.70
16980;DHT22;42288;52.182;21.156;2022-11-15T15:12:50;10.00;99.40
16980;DHT22;42288;52.182;21.156;2022-11-15T15:15:20;10.10;99.00
16980;DHT22;42288;52.182;21.156;2022-11-15T15:17:46;10.20;99.10
16980;DHT22;42288;52.182;21.156;2022-11-15T15:20:12;10.10;98.90
16980;DHT22;42288;52.182;21.156;2022-11-15T15:22:38;10.30;99.10
16980;DHT22;42288;52.182;21.156;2022-11-15T15:27:54;9.80;99.40
16980;DHT22;42288;52.182;21.156;2022-11-15T15:30:21;9.80;99.90
16980;DHT22;42288;52.182;21.156;2022-11-15T15:32:46;9.90;99.90
16980;DHT22;42288;52.182;21.156;2022-11-15T15:35:13;10.00;99.00
16980;DHT22;42288;52.182;21.156;2022-11-15T15:37:39;10.00;99.00
16980;DHT22;42288;52.182;21.156;2022-11-15T15:40:12;9.80;99.70
16980;DHT22;42288;52.182;21.156;2022-11-15T15:42:38;9.70;99.90
16980;DHT22;42288;52.182;21.156;2022-11-15T15:45:04;9.80;99.90
16980;DHT22;42288;52.182;21.156;2022-11-15T15:47:30;10.00;99.10
16980;DHT22;42288;52.182;21.156;2022-11-15T15:49:55;10.00;98.50
16980;DHT22;42288;52.182;21.156;2022-11-15T15:52:21;9.60;99.60
16980;DHT22;42288;52.182;21.156;2022-11-15T15:54:46;9.70;99.90
16980;DHT22;42288;52.182;21.156;2022-11-15T15:57:13;9.80;99.80
16980;DHT22;42288;52.182;21.156;2022-11-15T15:59:39;9.70;99.90
16980;DHT22;42288;52.182;21.156;2022-11-15T16:02:05;9.60;99.90
16980;DHT22;42288;52.182;21.156;2022-11-15T16:04:31;9.50;99.90
16980;DHT22;42288;52.182;21.156;2022-11-15T16:07:00;9.50;99.90
16980;DHT22;42288;52.182;21.156;2022-11-15T16:09:26;9.50;99.90
16980;DHT22;42288;52.182;21.156;2022-11-15T16:12:10;9.30;99.90
16980;DHT22;42288;52.182;21.156;2022-11-15T16:14:36;9.40;99.90
16980;DHT22;42288;52.182;21.156;2022-11-15T16:17:01;9.50;99.90
16980;DHT22;42288;52.182;21.156;2022-11-15T16:19:27;9.20;99.90
16980;DHT22;42288;52.182;21.156;2022-11-15T16:21:53;9.30;99.90
16980;DHT22;42288;52.182;21.156;2022-11-15T16:24:19;9.30;99.90
16980;DHT22;42288;52.182;21.156;2022-11-15T16:26:45;9.40;99.90
16980;DHT22;42288;52.182;21.156;2022-11-15T16:29:11;9.50;99.90
16980;DHT22;42288;52.182;21.156;2022-11-15T16:31:37;9.50;99.90
16980;DHT22;42288;52.182;21.156;2022-11-15T16:34:03;9.40;99.90
16980;DHT22;42288;52.182;21.156;2022-11-15T16:36:30;9.50;99.90
16980;DHT22;42288;52.182;21.156;2022-11-15T16:38:58;9.20;99.90
16980;DHT22;42288;52.182;21.156;2022-11-15T16:41:24;9.10;99.90
16980;DHT22;42288;52.182;21.156;2022-11-15T16:43:49;9.10;99.90
16980;DHT22;42288;52.182;21.156;2022-11-15T16:46:20;8.90;99.90
16980;DHT22;42288;52.182;21.156;2022-11-15T16:48:47;9.10;99.90
16980;DHT22;42288;52.182;21.156;2022-11-15T16:51:12;9.10;99.90
16980;DHT22;42288;52.182;21.156;2022-11-15T16:53:38;9.00;99.90
16980;DHT22;42288;52.182;21.156;2022-11-15T16:56:04;9.10;99.90
16980;DHT22;42288;52.182;21.156;2022-11-15T16:58:36;9.20;99.90
16980;DHT22;42288;52.182;21.156;2022-11-15T17:01:02;9.20;99.90
16980;DHT22;42288;52.182;21.156;2022-11-15T17:03:27;9.20;99.90
16980;DHT22;42288;52.182;21.156;2022-11-15T17:05:57;9.20;99.90
16980;DHT22;42288;52.182;21.156;2022-11-15T17:08:23;9.40;99.90
16980;DHT22;42288;52.182;21.156;2022-11-15T17:10:49;9.40;99.90
16980;DHT22;42288;52.182;21.156;2022-11-15T17:13:14;9.60;99.90
16980;DHT22;42288;52.182;21.156;2022-11-15T17:15:40;9.50;99.90